Time;durP1;ratioP1;P1;durP2;ratioP2;P2;SDS_P1;SDS_P2;PMS_P1;PMS_P2;Temp;Humidity;BMP_temperature;BMP_pressure;BME280_temperature;BME280_humidity;BME280_pressure;Samples;Min_cycle;Max_cycle;Signal;HPM_P1;HPM_P2
2023/10/04 00:00:34;;;;;;;1.63;1.40;;;;;;;;;;5137750;27;20047;-64
2023/10/04 00:03:00;;;;;;;1.60;1.40;;;;;;;;;;5137724;27;20035;-64
2023/10/04 00:05:26;;;;;;;2.08;1.50;;;;;;;;;;5137526;27;20088;-63
2023/10/04 00:07:52;;;;;;;2.05;1.27;;;;;;;;;;5137337;27;20419;-63
2023/10/04 00:10:18;;;;;;;2.63;1.30;;;;;;;;;;5138022;27;20027;-63
2023/10/04 00:12:44;;;;;;;1.40;1.30;;;;;;;;;;5137795;27;20066;-63
2023/10/04 00:15:12;;;;;;;1.52;1.40;;;;;;;;;;5137250;27;20027;-63
2023/10/04 00:17:41;;;;;;;1.50;1.38;;;;;;;;;;5137572;27;20039;-63
2023/10/04 00:20:13;;;;;;;1.52;1.35;;;;;;;;;;5137565;27;20031;-63
2023/10/04 00:22:40;;;;;;;2.00;1.50;;;;;;;;;;5136840;27;20035;-63
2023/10/04 00:25:11;;;;;;;4.57;1.60;;;;;;;;;;5136679;27;20073;-64
2023/10/04 00:27:42;;;;;;;2.20;1.35;;;;;;;;;;5136930;27;20039;-64
2023/10/04 00:30:15;;;;;;;2.60;1.52;;;;;;;;;;5136664;27;20070;-63
2023/10/04 00:32:41;;;;;;;1.42;1.33;;;;;;;;;;5118583;27;20538;-63
2023/10/04 00:35:12;;;;;;;1.60;1.50;;;;;;;;;;5136999;27;20035;-63
2023/10/04 00:37:38;;;;;;;2.17;1.98;;;;;;;;;;5137136;27;20480;-63
2023/10/04 00:40:12;;;;;;;3.45;1.85;;;;;;;;;;5136429;27;20042;-63
2023/10/04 00:42:38;;;;;;;2.80;1.73;;;;;;;;;;5136764;27;20039;-63
2023/10/04 00:45:03;;;;;;;1.90;1.60;;;;;;;;;;5136723;27;20035;-62
2023/10/04 00:47:29;;;;;;;2.90;1.52;;;;;;;;;;5136360;27;20118;-63
2023/10/04 00:49:55;;;;;;;1.88;1.52;;;;;;;;;;5136964;27;20035;-63
2023/10/04 00:52:21;;;;;;;3.08;1.77;;;;;;;;;;5136463;27;20071;-63
2023/10/04 00:54:46;;;;;;;2.15;1.77;;;;;;;;;;5100964;27;20034;-63
2023/10/04 00:57:12;;;;;;;2.55;1.73;;;;;;;;;;5136601;27;20031;-63
2023/10/04 00:59:37;;;;;;;1.95;1.55;;;;;;;;;;5118289;27;20039;-63
2023/10/04 01:02:03;;;;;;;2.92;2.10;;;;;;;;;;5136585;27;20155;-63
2023/10/04 01:04:28;;;;;;;2.50;1.60;;;;;;;;;;5135910;27;20042;-63
2023/10/04 01:06:54;;;;;;;2.35;1.75;;;;;;;;;;5135931;27;20480;-63
2023/10/04 01:09:23;;;;;;;2.45;1.77;;;;;;;;;;5136279;27;20038;-63
2023/10/04 01:11:48;;;;;;;1.48;1.30;;;;;;;;;;5136452;27;20043;-64
2023/10/04 01:14:49;;;;;;;3.20;1.92;;;;;;;;;;5117380;27;20020;-57
2023/10/04 01:17:12;;;;;;;2.45;1.75;;;;;;;;;;5132054;27;20082;-57
2023/10/04 01:19:38;;;;;;;1.63;1.48;;;;;;;;;;5136398;27;20035;-57
2023/10/04 01:22:04;;;;;;;2.25;1.40;;;;;;;;;;5135899;27;20061;-57
2023/10/04 01:24:33;;;;;;;1.73;1.63;;;;;;;;;;5135535;27;20153;-57
2023/10/04 01:26:58;;;;;;;2.47;1.33;;;;;;;;;;5135495;27;20125;-57
2023/10/04 01:29:27;;;;;;;1.63;1.52;;;;;;;;;;5117395;27;20073;-63
2023/10/04 01:31:53;;;;;;;2.00;1.13;;;;;;;;;;5135848;27;20031;-57
2023/10/04 01:34:19;;;;;;;2.20;1.65;;;;;;;;;;5136013;27;20035;-64
2023/10/04 01:36:44;;;;;;;2.05;1.30;;;;;;;;;;5135725;27;20072;-64
2023/10/04 01:39:18;;;;;;;2.38;1.40;;;;;;;;;;5117289;27;20082;-63
2023/10/04 01:41:43;;;;;;;1.92;1.33;;;;;;;;;;5117444;27;20042;-63
2023/10/04 01:44:10;;;;;;;2.92;1.50;;;;;;;;;;5117284;27;20396;-62
2023/10/04 01:46:38;;;;;;;1.90;1.60;;;;;;;;;;5135846;27;20054;-63
2023/10/04 01:49:05;;;;;;;2.75;1.58;;;;;;;;;;5117529;27;20043;-63
2023/10/04 01:51:32;;;;;;;2.22;1.30;;;;;;;;;;5135792;27;20023;-62
2023/10/04 01:53:58;;;;;;;1.50;1.40;;;;;;;;;;5135165;27;20114;-62
2023/10/04 01:56:24;;;;;;;1.50;1.20;;;;;;;;;;5135432;27;20481;-62
2023/10/04 01:58:50;;;;;;;1.75;1.40;;;;;;;;;;5134994;27;20046;-63
2023/10/04 02:01:15;;;;;;;2.08;1.45;;;;;;;;;;5135269;27;20031;-63
2023/10/04 02:03:41;;;;;;;2.80;1.40;;;;;;;;;;5116960;27;20524;-57
2023/10/04 02:06:08;;;;;;;1.65;1.52;;;;;;;;;;5117062;27;20043;-56
2023/10/04 02:08:33;;;;;;;1.38;1.27;;;;;;;;;;5116894;27;20110;-56
2023/10/04 02:10:59;;;;;;;2.42;1.45;;;;;;;;;;5116816;27;20521;-57
2023/10/04 02:13:27;;;;;;;1.83;1.58;;;;;;;;;;5135441;27;20035;-57
2023/10/04 02:15:53;;;;;;;1.83;1.20;;;;;;;;;;5116792;27;20047;-57
2023/10/04 02:18:19;;;;;;;1.98;1.10;;;;;;;;;;5135255;27;20381;-57
2023/10/04 02:20:46;;;;;;;3.15;1.30;;;;;;;;;;5135392;27;20503;-57
2023/10/04 02:23:12;;;;;;;2.05;1.40;;;;;;;;;;5134859;27;20065;-57
2023/10/04 02:25:39;;;;;;;1.70;1.38;;;;;;;;;;5134929;28;20039;-58
2023/10/04 02:28:10;;;;;;;1.30;1.20;;;;;;;;;;5135143;28;20039;-58
2023/10/04 02:30:40;;;;;;;1.50;1.33;;;;;;;;;;5135169;28;20038;-56
2023/10/04 02:33:09;;;;;;;1.25;1.02;;;;;;;;;;5116369;28;20059;-56
2023/10/04 02:35:43;;;;;;;1.60;1.38;;;;;;;;;;5116699;28;20031;-56
2023/10/04 02:38:33;;;;;;;1.55;1.27;;;;;;;;;;5116679;28;20039;-56
2023/10/04 02:40:54;;;;;;;2.65;1.20;;;;;;;;;;5132194;27;20091;-56
2023/10/04 02:43:22;;;;;;;2.88;1.30;;;;;;;;;;5116334;28;20166;-56
2023/10/04 02:45:49;;;;;;;2.00;1.40;;;;;;;;;;5134709;28;20043;-63
2023/10/04 02:48:14;;;;;;;1.23;1.02;;;;;;;;;;5133347;28;20120;-57
2023/10/04 02:50:40;;;;;;;2.35;1.10;;;;;;;;;;5136258;27;20469;-56
2023/10/04 02:53:10;;;;;;;1.13;1.00;;;;;;;;;;5138993;27;20055;-57
2023/10/04 02:55:36;;;;;;;1.50;1.10;;;;;;;;;;5120641;27;20023;-57
2023/10/04 02:58:05;;;;;;;1.27;1.05;;;;;;;;;;5120286;27;20126;-57
2023/10/04 03:00:33;;;;;;;1.50;1.40;;;;;;;;;;5120169;27;20035;-62
2023/10/04 03:02:59;;;;;;;1.17;1.08;;;;;;;;;;5086980;27;20057;-63
2023/10/04 03:05:28;;;;;;;1.38;1.27;;;;;;;;;;5138608;27;20084;-57
2023/10/04 03:07:55;;;;;;;1.55;1.42;;;;;;;;;;5119818;27;20031;-57
2023/10/04 03:10:25;;;;;;;1.88;1.20;;;;;;;;;;5119873;27;20119;-56
2023/10/04 03:12:59;;;;;;;2.55;1.38;;;;;;;;;;5138826;27;20053;-55
2023/10/04 03:15:27;;;;;;;1.70;1.30;;;;;;;;;;5119833;27;20042;-56
2023/10/04 03:17:54;;;;;;;1.45;1.00;;;;;;;;;;5119952;27;20042;-56
2023/10/04 03:20:21;;;;;;;1.85;1.00;;;;;;;;;;5119990;27;20043;-62
2023/10/04 03:22:48;;;;;;;1.63;1.00;;;;;;;;;;5119920;27;20372;-62
2023/10/04 03:25:17;;;;;;;1.83;0.90;;;;;;;;;;5119967;27;20458;-63
2023/10/04 03:27:44;;;;;;;0.88;0.82;;;;;;;;;;5138692;27;20088;-63
2023/10/04 03:30:16;;;;;;;1.30;1.00;;;;;;;;;;5119741;27;20035;-57
2023/10/04 03:32:52;;;;;;;1.52;1.00;;;;;;;;;;5119705;27;20056;-63
2023/10/04 03:35:20;;;;;;;1.00;0.90;;;;;;;;;;5136865;27;20041;-63
2023/10/04 03:37:58;;;;;;;1.85;1.10;;;;;;;;;;5119762;27;20092;-63
2023/10/04 03:40:37;;;;;;;1.42;0.90;;;;;;;;;;5119242;27;20039;-63
2023/10/04 03:43:12;;;;;;;1.73;1.00;;;;;;;;;;5119920;27;20039;-58
2023/10/04 03:45:40;;;;;;;1.30;1.00;;;;;;;;;;5119500;27;20067;-63
2023/10/04 03:48:15;;;;;;;1.67;0.90;;;;;;;;;;5119765;27;20032;-62
2023/10/04 03:50:46;;;;;;;2.10;0.90;;;;;;;;;;5118808;27;20027;-56
2023/10/04 03:53:12;;;;;;;1.33;0.85;;;;;;;;;;5119455;27;20046;-56
2023/10/04 03:55:39;;;;;;;1.58;1.10;;;;;;;;;;5119580;27;20050;-56
2023/10/04 03:58:09;;;;;;;2.40;1.30;;;;;;;;;;5119150;27;20126;-57
2023/10/04 04:00:36;;;;;;;;;;;;;;;;;;5119687;27;20477;-57
2023/10/04 04:03:03;;;;;;;1.65;0.70;;;;;;;;;;5118981;27;19907;-63
2023/10/04 04:05:30;;;;;;;1.77;0.93;;;;;;;;;;5118702;27;20123;-63
2023/10/04 04:07:56;;;;;;;1.42;0.90;;;;;;;;;;5119155;27;20038;-63
2023/10/04 04:10:23;;;;;;;1.42;0.85;;;;;;;;;;5137486;27;20098;-63
2023/10/04 04:12:49;;;;;;;0.98;0.90;;;;;;;;;;5136830;27;20408;-63
2023/10/04 04:15:15;;;;;;;1.73;0.90;;;;;;;;;;5119209;27;20477;-63
2023/10/04 04:17:42;;;;;;;2.25;1.30;;;;;;;;;;5118749;27;20023;-61
2023/10/04 04:20:19;;;;;;;1.33;0.80;;;;;;;;;;5134641;27;20039;-62
2023/10/04 04:22:50;;;;;;;2.50;1.08;;;;;;;;;;5118734;27;20035;-63
2023/10/04 04:25:20;;;;;;;1.52;1.00;;;;;;;;;;5119046;27;20426;-58
2023/10/04 04:27:52;;;;;;;1.90;0.98;;;;;;;;;;5118332;27;20187;-57
2023/10/04 04:30:20;;;;;;;;;;;;;;;;;;5118805;27;20040;-58
2023/10/04 04:32:52;;;;;;;2.70;1.00;;;;;;;;;;5118917;27;19907;-64
2023/10/04 04:35:47;;;;;;;1.15;0.90;;;;;;;;;;5118607;27;20461;-64
2023/10/04 04:38:24;;;;;;;2.35;1.05;;;;;;;;;;5118416;27;20031;-64
2023/10/04 04:40:52;;;;;;;1.25;0.80;;;;;;;;;;5117886;27;20049;-64
2023/10/04 04:43:40;;;;;;;1.67;1.00;;;;;;;;;;5136494;27;20027;-64
2023/10/04 04:46:09;;;;;;;1.88;0.70;;;;;;;;;;5118201;27;20031;-65
2023/10/04 04:48:37;;;;;;;3.83;1.20;;;;;;;;;;5117681;27;20035;-65
2023/10/04 04:51:12;;;;;;;2.30;1.00;;;;;;;;;;5117879;27;20473;-65
2023/10/04 04:53:50;;;;;;;1.65;0.98;;;;;;;;;;5118197;27;20521;-64
2023/10/04 04:56:18;;;;;;;2.22;0.90;;;;;;;;;;5118305;27;20035;-64
2023/10/04 04:58:47;;;;;;;1.30;1.05;;;;;;;;;;5118095;27;20530;-64
2023/10/04 05:01:13;;;;;;;1.70;0.85;;;;;;;;;;5136280;27;20035;-64
2023/10/04 05:03:42;;;;;;;1.65;0.80;;;;;;;;;;5136475;27;20043;-64
2023/10/04 05:06:13;;;;;;;1.88;0.88;;;;;;;;;;5118176;27;20038;-64
2023/10/04 05:08:39;;;;;;;1.90;1.15;;;;;;;;;;5136573;27;20122;-63
2023/10/04 05:11:05;;;;;;;2.50;1.05;;;;;;;;;;5136239;27;20066;-63
2023/10/04 05:13:30;;;;;;;1.20;1.02;;;;;;;;;;5135739;27;20044;-63
2023/10/04 05:15:56;;;;;;;3.25;0.85;;;;;;;;;;5117671;27;20088;-62
2023/10/04 05:18:22;;;;;;;2.80;1.20;;;;;;;;;;5136297;27;20544;-63
2023/10/04 05:20:54;;;;;;;3.25;1.15;;;;;;;;;;5136124;27;20038;-63
2023/10/04 05:23:24;;;;;;;1.92;1.00;;;;;;;;;;5135798;27;20043;-63
2023/10/04 05:25:50;;;;;;;4.72;1.35;;;;;;;;;;5135628;27;20509;-56
2023/10/04 05:28:16;;;;;;;3.05;1.23;;;;;;;;;;5135846;27;20118;-56
2023/10/04 05:30:45;;;;;;;1.40;1.17;;;;;;;;;;5135612;27;20069;-56
2023/10/04 05:33:14;;;;;;;1.73;1.10;;;;;;;;;;5135468;27;20031;-56
2023/10/04 05:35:41;;;;;;;1.67;1.02;;;;;;;;;;5135474;27;20472;-56
2023/10/04 05:38:07;;;;;;;2.67;0.90;;;;;;;;;;5135324;27;20023;-56
2023/10/04 05:40:34;;;;;;;2.65;1.10;;;;;;;;;;5133657;27;20424;-56
2023/10/04 05:43:00;;;;;;;2.88;1.17;;;;;;;;;;5133930;27;20510;-56
2023/10/04 05:45:26;;;;;;;3.55;1.15;;;;;;;;;;5133708;27;20027;-56
2023/10/04 05:47:52;;;;;;;3.80;1.00;;;;;;;;;;5134631;27;20072;-56
2023/10/04 05:50:18;;;;;;;1.75;1.10;;;;;;;;;;5134821;27;20092;-56
2023/10/04 05:52:44;;;;;;;1.30;1.00;;;;;;;;;;5135075;27;20031;-56
2023/10/04 05:55:10;;;;;;;2.08;1.02;;;;;;;;;;5134909;27;20111;-56
2023/10/04 05:57:35;;;;;;;2.55;1.15;;;;;;;;;;5135516;27;20038;-56
2023/10/04 06:02:49;;;;;;;1.92;1.10;;;;;;;;;;5133841;27;20050;-56
2023/10/04 06:05:16;;;;;;;3.78;1.23;;;;;;;;;;5133782;27;20040;-56
2023/10/04 06:07:42;;;;;;;2.30;1.33;;;;;;;;;;5133731;27;20043;-56
2023/10/04 06:10:08;;;;;;;4.63;1.27;;;;;;;;;;5133707;27;20075;-56
2023/10/04 06:12:33;;;;;;;1.58;0.98;;;;;;;;;;5134206;27;20476;-56
2023/10/04 06:14:59;;;;;;;1.77;1.08;;;;;;;;;;5116767;27;20031;-56
2023/10/04 06:17:25;;;;;;;1.80;1.05;;;;;;;;;;5135091;27;20043;-56
2023/10/04 06:19:54;;;;;;;2.53;1.35;;;;;;;;;;5135085;27;20043;-56
2023/10/04 06:22:19;;;;;;;2.42;1.10;;;;;;;;;;5117154;28;20047;-56
2023/10/04 06:24:45;;;;;;;1.70;0.90;;;;;;;;;;5134648;27;20047;-56
2023/10/04 06:27:11;;;;;;;1.98;1.17;;;;;;;;;;5134720;28;20050;-56
2023/10/04 06:29:36;;;;;;;2.28;1.13;;;;;;;;;;5135009;28;20100;-56
2023/10/04 06:32:03;;;;;;;2.25;1.25;;;;;;;;;;5135050;28;20460;-56
2023/10/04 06:34:28;;;;;;;2.63;1.17;;;;;;;;;;5135247;28;20042;-56
2023/10/04 06:36:53;;;;;;;1.30;1.10;;;;;;;;;;5135242;28;20038;-56
2023/10/04 06:39:19;;;;;;;2.03;1.00;;;;;;;;;;5134783;28;20139;-56
2023/10/04 06:41:45;;;;;;;3.42;1.05;;;;;;;;;;5116256;28;20043;-56
2023/10/04 06:44:11;;;;;;;4.15;1.30;;;;;;;;;;5099814;28;20453;-55
2023/10/04 06:46:36;;;;;;;1.20;1.05;;;;;;;;;;5116520;28;20126;-54
2023/10/04 06:49:05;;;;;;;2.40;1.13;;;;;;;;;;5134837;28;20027;-55
2023/10/04 06:51:30;;;;;;;2.88;1.50;;;;;;;;;;5135012;28;20027;-55
2023/10/04 06:53:55;;;;;;;3.28;1.25;;;;;;;;;;5134831;27;20055;-55
2023/10/04 06:56:21;;;;;;;3.15;1.25;;;;;;;;;;5133668;28;20039;-55
2023/10/04 06:58:48;;;;;;;3.95;1.33;;;;;;;;;;5133929;28;20027;-55
2023/10/04 07:01:14;;;;;;;1.73;0.90;;;;;;;;;;5115771;28;20606;-55
2023/10/04 07:03:43;;;;;;;1.17;0.90;;;;;;;;;;5133851;28;20420;-55
2023/10/04 07:06:08;;;;;;;2.97;1.45;;;;;;;;;;5134153;28;20050;-55
2023/10/04 07:08:35;;;;;;;2.17;1.20;;;;;;;;;;5133883;28;20094;-55
2023/10/04 07:11:01;;;;;;;2.22;1.10;;;;;;;;;;5134120;28;20055;-55
2023/10/04 07:13:28;;;;;;;4.55;1.20;;;;;;;;;;5133972;28;20477;-55
2023/10/04 07:15:55;;;;;;;1.40;0.90;;;;;;;;;;5115644;28;20104;-55
2023/10/04 07:18:20;;;;;;;3.60;1.10;;;;;;;;;;5133847;28;20039;-55
2023/10/04 07:20:45;;;;;;;2.67;0.95;;;;;;;;;;5115476;28;20039;-54
2023/10/04 07:23:13;;;;;;;1.55;0.90;;;;;;;;;;5133829;28;20115;-55
2023/10/04 07:25:41;;;;;;;2.08;1.10;;;;;;;;;;5133826;28;20096;-55
2023/10/04 07:28:09;;;;;;;1.60;0.93;;;;;;;;;;5133902;28;20492;-55
2023/10/04 07:30:35;;;;;;;1.63;0.80;;;;;;;;;;5133785;28;20118;-55
2023/10/04 07:33:01;;;;;;;1.88;1.15;;;;;;;;;;5133777;28;20039;-55
2023/10/04 07:35:27;;;;;;;1.83;1.08;;;;;;;;;;5133335;27;20039;-55
2023/10/04 07:37:53;;;;;;;1.75;1.00;;;;;;;;;;5136721;27;20476;-55
2023/10/04 07:40:20;;;;;;;0.65;0.47;;;;;;;;;;5136961;27;20424;-55
2023/10/04 07:42:46;;;;;;;3.45;1.40;;;;;;;;;;5137265;27;20477;-55
2023/10/04 07:45:12;;;;;;;1.48;0.95;;;;;;;;;;5137154;27;20035;-55
2023/10/04 07:47:41;;;;;;;1.73;0.93;;;;;;;;;;5136767;27;20047;-55
2023/10/04 07:50:09;;;;;;;2.38;0.77;;;;;;;;;;5137041;27;20046;-55
2023/10/04 07:52:38;;;;;;;1.92;1.23;;;;;;;;;;5137065;27;20027;-55
2023/10/04 07:55:22;;;;;;;0.80;0.73;;;;;;;;;;5137064;27;20123;-55
2023/10/04 07:57:53;;;;;;;1.08;0.90;;;;;;;;;;5137014;27;20039;-55
2023/10/04 08:00:18;;;;;;;;;;;;;;;;;;5137537;27;20052;-55
2023/10/04 08:02:49;;;;;;;1.13;0.80;;;;;;;;;;5118570;27;19993;-55
2023/10/04 08:05:20;;;;;;;1.98;0.80;;;;;;;;;;5136828;27;20465;-55
2023/10/04 08:07:49;;;;;;;1.33;0.90;;;;;;;;;;5118340;27;20031;-55
2023/10/04 08:10:18;;;;;;;1.33;0.90;;;;;;;;;;5136686;27;20035;-54
2023/10/04 08:12:44;;;;;;;1.90;0.80;;;;;;;;;;5136801;27;20027;-55
2023/10/04 08:15:13;;;;;;;2.33;0.90;;;;;;;;;;5136342;27;20565;-55
2023/10/04 08:17:39;;;;;;;1.60;1.10;;;;;;;;;;5118412;27;20485;-55
2023/10/04 08:20:05;;;;;;;1.70;1.02;;;;;;;;;;5136656;27;20035;-55
2023/10/04 08:22:30;;;;;;;1.05;0.85;;;;;;;;;;5136572;27;20043;-55
2023/10/04 08:24:56;;;;;;;1.10;1.00;;;;;;;;;;5136386;27;20035;-55
2023/10/04 08:27:22;;;;;;;1.08;0.65;;;;;;;;;;5136229;27;20039;-54
2023/10/04 08:29:48;;;;;;;2.72;0.98;;;;;;;;;;5117520;27;20396;-55
2023/10/04 08:32:13;;;;;;;2.20;0.88;;;;;;;;;;5136294;27;20047;-55
2023/10/04 08:34:40;;;;;;;1.40;1.00;;;;;;;;;;5136345;27;20027;-55
2023/10/04 08:37:05;;;;;;;1.65;0.90;;;;;;;;;;5136201;27;20039;-55
2023/10/04 08:39:33;;;;;;;4.22;0.95;;;;;;;;;;5136042;27;20497;-55
2023/10/04 08:41:59;;;;;;;1.30;0.75;;;;;;;;;;5136121;27;20122;-55
2023/10/04 08:44:24;;;;;;;1.08;1.00;;;;;;;;;;5136159;27;20056;-55
2023/10/04 08:46:53;;;;;;;1.40;1.20;;;;;;;;;;5136120;27;20031;-55
2023/10/04 08:49:21;;;;;;;1.45;0.93;;;;;;;;;;5134586;27;20069;-55
2023/10/04 08:51:52;;;;;;;1.73;0.80;;;;;;;;;;5117289;27;20461;-55
2023/10/04 08:54:21;;;;;;;2.28;0.98;;;;;;;;;;5135360;27;20035;-55
2023/10/04 08:56:58;;;;;;;2.75;1.00;;;;;;;;;;5135326;27;20473;-55
2023/10/04 08:59:27;;;;;;;1.55;0.90;;;;;;;;;;5135694;27;20069;-55
2023/10/04 09:01:53;;;;;;;2.20;1.08;;;;;;;;;;5135738;27;20031;-55
2023/10/04 09:04:20;;;;;;;2.08;1.00;;;;;;;;;;5135652;27;20056;-55
2023/10/04 09:06:47;;;;;;;2.22;0.90;;;;;;;;;;5135784;27;20030;-55
2023/10/04 09:09:15;;;;;;;2.35;0.90;;;;;;;;;;5135512;27;20461;-54
2023/10/04 09:11:41;;;;;;;1.00;0.90;;;;;;;;;;5135517;27;20035;-55
2023/10/04 09:14:07;;;;;;;2.00;0.88;;;;;;;;;;5135535;27;20035;-55
2023/10/04 09:16:32;;;;;;;2.75;0.95;;;;;;;;;;5135333;27;20031;-55
2023/10/04 09:19:03;;;;;;;2.67;0.98;;;;;;;;;;5134877;27;20039;-55
2023/10/04 09:21:28;;;;;;;2.22;0.80;;;;;;;;;;5116584;27;20042;-55
2023/10/04 09:24:04;;;;;;;1.30;1.17;;;;;;;;;;5135379;27;20043;-55
2023/10/04 09:26:30;;;;;;;2.22;0.93;;;;;;;;;;5135209;27;20037;-55
2023/10/04 09:28:55;;;;;;;1.10;1.00;;;;;;;;;;5135050;27;20039;-55
2023/10/04 09:31:21;;;;;;;1.80;0.90;;;;;;;;;;5116668;27;20057;-55
2023/10/04 09:33:46;;;;;;;1.92;0.88;;;;;;;;;;5135153;27;20034;-55
2023/10/04 09:36:13;;;;;;;1.48;0.70;;;;;;;;;;5134718;27;20038;-55
2023/10/04 09:38:39;;;;;;;1.38;0.80;;;;;;;;;;5135262;27;20217;-55
2023/10/04 09:41:04;;;;;;;1.48;0.93;;;;;;;;;;5134923;27;20043;-55
2023/10/04 09:43:36;;;;;;;1.40;0.82;;;;;;;;;;5115718;27;20042;-61
2023/10/04 09:46:06;;;;;;;1.88;0.77;;;;;;;;;;5134756;27;20035;-61
2023/10/04 09:48:33;;;;;;;1.10;0.77;;;;;;;;;;5134849;27;20039;-61
2023/10/04 09:51:00;;;;;;;2.08;1.00;;;;;;;;;;5134435;27;20114;-61
2023/10/04 09:53:25;;;;;;;1.42;0.70;;;;;;;;;;5127772;27;20086;-55
2023/10/04 09:55:52;;;;;;;2.10;1.00;;;;;;;;;;5130457;27;20152;-55
2023/10/04 09:58:21;;;;;;;1.52;0.90;;;;;;;;;;5116236;27;20042;-55
2023/10/04 10:00:46;;;;;;;2.45;1.08;;;;;;;;;;5134547;27;20385;-55
2023/10/04 10:03:12;;;;;;;1.35;1.02;;;;;;;;;;5134477;27;20031;-55
2023/10/04 10:05:40;;;;;;;1.65;0.98;;;;;;;;;;5134476;27;20035;-55
2023/10/04 10:08:08;;;;;;;2.10;0.98;;;;;;;;;;5134607;27;20388;-55
2023/10/04 10:10:34;;;;;;;1.40;1.08;;;;;;;;;;5134230;27;20049;-55
2023/10/04 10:13:00;;;;;;;1.15;0.98;;;;;;;;;;5134592;27;20039;-55
2023/10/04 10:15:27;;;;;;;1.27;0.90;;;;;;;;;;5134399;27;20474;-55
2023/10/04 10:17:52;;;;;;;1.33;0.88;;;;;;;;;;5134299;27;20031;-55
2023/10/04 10:20:19;;;;;;;1.60;0.93;;;;;;;;;;5134301;27;20135;-55
2023/10/04 10:22:57;;;;;;;1.30;1.13;;;;;;;;;;5134491;27;20050;-55
2023/10/04 10:25:23;;;;;;;1.08;0.57;;;;;;;;;;5115995;28;20530;-55
2023/10/04 10:27:48;;;;;;;1.20;0.88;;;;;;;;;;5134252;27;20035;-55
2023/10/04 10:30:16;;;;;;;1.65;1.08;;;;;;;;;;5134467;28;20039;-55
2023/10/04 10:32:58;;;;;;;0.75;0.68;;;;;;;;;;5134343;28;20472;-55
2023/10/04 10:35:53;;;;;;;1.13;1.02;;;;;;;;;;5134213;28;20066;-55
2023/10/04 10:38:37;;;;;;;2.10;0.70;;;;;;;;;;5126672;28;20113;-55
2023/10/04 10:41:02;;;;;;;1.30;0.82;;;;;;;;;;5097096;28;20042;-55
2023/10/04 10:43:27;;;;;;;1.70;0.88;;;;;;;;;;5113699;28;20039;-55
2023/10/04 10:45:53;;;;;;;2.60;1.25;;;;;;;;;;5095058;28;20063;-55
2023/10/04 10:48:28;;;;;;;2.45;0.90;;;;;;;;;;5113067;28;20046;-55
2023/10/04 10:50:54;;;;;;;0.98;0.95;;;;;;;;;;5113709;28;20138;-55
2023/10/04 10:53:19;;;;;;;1.15;0.88;;;;;;;;;;5113645;28;20748;-55
2023/10/04 10:55:44;;;;;;;1.67;1.10;;;;;;;;;;5113472;28;20061;-55
2023/10/04 10:58:10;;;;;;;1.30;1.20;;;;;;;;;;5113624;28;20020;-55
2023/10/04 11:00:36;;;;;;;1.50;1.13;;;;;;;;;;5113132;28;20027;-55
2023/10/04 11:03:04;;;;;;;1.85;0.85;;;;;;;;;;5113521;28;20387;-55
2023/10/04 11:05:30;;;;;;;1.63;1.08;;;;;;;;;;5113388;28;20126;-55
2023/10/04 11:07:56;;;;;;;1.95;1.00;;;;;;;;;;5113392;28;20108;-55
2023/10/04 11:10:23;;;;;;;1.30;0.90;;;;;;;;;;5113199;28;20514;-55
2023/10/04 11:12:55;;;;;;;3.67;0.80;;;;;;;;;;5116681;28;20031;-55
2023/10/04 11:15:23;;;;;;;1.20;1.00;;;;;;;;;;5117371;28;20039;-55
2023/10/04 11:17:49;;;;;;;1.70;1.17;;;;;;;;;;5117385;28;20031;-55
2023/10/04 11:20:20;;;;;;;1.15;0.68;;;;;;;;;;5117349;28;20097;-55
2023/10/04 11:22:46;;;;;;;1.17;1.08;;;;;;;;;;5117031;28;20169;-55
2023/10/04 11:25:13;;;;;;;1.40;0.95;;;;;;;;;;5117182;28;20122;-55
2023/10/04 11:27:41;;;;;;;1.00;0.90;;;;;;;;;;5116860;28;20469;-55
2023/10/04 11:30:10;;;;;;;2.40;1.33;;;;;;;;;;5117119;28;20035;-55
2023/10/04 11:32:37;;;;;;;1.25;0.93;;;;;;;;;;5116960;28;20059;-55
2023/10/04 11:35:09;;;;;;;1.00;0.93;;;;;;;;;;5116933;28;20118;-55
2023/10/04 11:38:06;;;;;;;1.23;0.90;;;;;;;;;;5116837;28;20069;-55
2023/10/04 11:40:31;;;;;;;2.55;0.85;;;;;;;;;;5110519;27;20051;-55
2023/10/04 11:43:00;;;;;;;1.15;0.80;;;;;;;;;;5137104;27;20035;-54
2023/10/04 11:45:26;;;;;;;1.05;0.93;;;;;;;;;;5137330;27;20034;-55
2023/10/04 11:48:05;;;;;;;2.55;0.98;;;;;;;;;;5137209;27;20035;-55
2023/10/04 11:50:46;;;;;;;1.33;1.00;;;;;;;;;;5137132;27;20057;-55
2023/10/04 11:53:13;;;;;;;1.35;0.85;;;;;;;;;;5137135;27;20112;-55
2023/10/04 11:55:38;;;;;;;0.63;0.63;;;;;;;;;;5137107;27;20473;-55
2023/10/04 11:58:07;;;;;;;1.00;0.95;;;;;;;;;;5136838;27;20073;-55
2023/10/04 12:00:33;;;;;;;1.75;1.10;;;;;;;;;;5136446;27;20532;-55
2023/10/04 12:03:01;;;;;;;0.73;0.73;;;;;;;;;;5136667;27;20059;-55
2023/10/04 12:05:27;;;;;;;1.20;1.10;;;;;;;;;;5136102;27;20035;-55
2023/10/04 12:07:58;;;;;;;1.50;1.00;;;;;;;;;;5136405;27;20364;-55
2023/10/04 12:10:24;;;;;;;1.02;0.90;;;;;;;;;;5101385;27;20114;-55
2023/10/04 12:12:52;;;;;;;1.25;0.95;;;;;;;;;;5136746;27;20035;-55
2023/10/04 12:15:17;;;;;;;1.65;1.05;;;;;;;;;;5136518;27;20024;-55
2023/10/04 12:17:45;;;;;;;2.10;1.20;;;;;;;;;;5136606;27;20046;-55
2023/10/04 12:20:11;;;;;;;3.20;1.20;;;;;;;;;;5136150;27;20043;-55
2023/10/04 12:22:37;;;;;;;3.45;1.25;;;;;;;;;;5136237;27;20031;-55
2023/10/04 12:25:04;;;;;;;0.77;0.77;;;;;;;;;;5117944;27;20084;-55
2023/10/04 12:27:30;;;;;;;2.28;1.15;;;;;;;;;;5133015;27;20065;-56
2023/10/04 12:29:56;;;;;;;1.40;0.93;;;;;;;;;;5126555;27;20032;-55
2023/10/04 12:32:24;;;;;;;2.03;1.10;;;;;;;;;;5122832;27;20396;-55
2023/10/04 12:34:49;;;;;;;2.70;0.85;;;;;;;;;;5115932;28;20119;-55
2023/10/04 12:37:15;;;;;;;2.17;1.20;;;;;;;;;;5115337;28;20591;-55
2023/10/04 12:39:43;;;;;;;2.15;0.95;;;;;;;;;;5115030;28;20530;-55
2023/10/04 12:42:09;;;;;;;3.00;1.08;;;;;;;;;;5115632;28;20446;-55
2023/10/04 12:44:41;;;;;;;2.55;1.00;;;;;;;;;;5097632;28;20040;-55
2023/10/04 12:47:08;;;;;;;1.13;1.02;;;;;;;;;;5114816;28;20255;-55
2023/10/04 12:49:34;;;;;;;2.33;1.08;;;;;;;;;;5114930;28;20080;-55
2023/10/04 12:51:59;;;;;;;1.42;1.30;;;;;;;;;;5115552;28;20036;-55
2023/10/04 12:54:25;;;;;;;2.55;1.52;;;;;;;;;;5114377;28;20490;-55
2023/10/04 12:56:52;;;;;;;2.45;1.08;;;;;;;;;;5114157;28;20039;-56
2023/10/04 12:59:19;;;;;;;2.67;1.13;;;;;;;;;;5115396;28;20047;-55
2023/10/04 13:01:45;;;;;;;2.25;1.20;;;;;;;;;;5097287;28;20039;-55
2023/10/04 13:04:11;;;;;;;1.10;1.00;;;;;;;;;;5115636;28;20050;-55
2023/10/04 13:06:37;;;;;;;1.60;1.00;;;;;;;;;;5115034;28;20590;-55
2023/10/04 13:09:03;;;;;;;2.25;1.23;;;;;;;;;;5114214;28;20095;-55
2023/10/04 13:11:30;;;;;;;2.75;1.13;;;;;;;;;;5113393;28;20032;-55
2023/10/04 13:13:55;;;;;;;1.73;1.30;;;;;;;;;;5095224;28;20134;-55
2023/10/04 13:16:21;;;;;;;2.13;1.10;;;;;;;;;;5115358;28;20550;-55
2023/10/04 13:18:48;;;;;;;1.58;1.00;;;;;;;;;;5115244;28;20067;-55
2023/10/04 13:21:15;;;;;;;1.27;0.98;;;;;;;;;;5115745;28;20038;-55
2023/10/04 13:23:40;;;;;;;1.48;0.98;;;;;;;;;;5115742;28;20377;-55
2023/10/04 13:26:08;;;;;;;1.60;1.05;;;;;;;;;;5115505;28;20024;-55
2023/10/04 13:28:33;;;;;;;3.50;1.15;;;;;;;;;;5097042;28;20039;-55
2023/10/04 13:30:59;;;;;;;0.90;0.90;;;;;;;;;;5114362;28;20043;-55
2023/10/04 13:33:25;;;;;;;1.38;1.15;;;;;;;;;;5114509;28;20035;-55
2023/10/04 13:35:51;;;;;;;1.30;1.13;;;;;;;;;;5114940;28;20079;-55
2023/10/04 13:38:20;;;;;;;1.02;0.93;;;;;;;;;;5097369;28;20039;-55
2023/10/04 13:40:52;;;;;;;1.85;1.00;;;;;;;;;;5114742;28;20382;-55
2023/10/04 13:43:21;;;;;;;2.55;1.20;;;;;;;;;;5114581;28;20032;-55
2023/10/04 13:45:48;;;;;;;1.85;1.13;;;;;;;;;;5114682;28;20115;-55
2023/10/04 13:48:13;;;;;;;2.60;1.30;;;;;;;;;;5114519;28;20032;-55
2023/10/04 13:50:39;;;;;;;1.13;1.00;;;;;;;;;;5114498;28;20390;-55
2023/10/04 13:53:10;;;;;;;2.30;1.30;;;;;;;;;;5114796;28;20024;-55
2023/10/04 13:55:38;;;;;;;1.63;1.27;;;;;;;;;;5115210;28;20047;-55
2023/10/04 13:58:06;;;;;;;1.80;1.50;;;;;;;;;;5115067;28;20063;-55
2023/10/04 14:00:40;;;;;;;1.20;1.10;;;;;;;;;;5096318;28;20153;-55
2023/10/04 14:03:05;;;;;;;2.30;1.35;;;;;;;;;;5096365;28;20114;-55
2023/10/04 14:05:31;;;;;;;1.90;1.30;;;;;;;;;;5115355;28;20067;-55
2023/10/04 14:07:56;;;;;;;2.00;1.50;;;;;;;;;;5114307;28;20088;-55
2023/10/04 14:10:23;;;;;;;0.98;0.88;;;;;;;;;;5114503;28;20032;-55
2023/10/04 14:12:55;;;;;;;2.70;1.30;;;;;;;;;;5096011;28;20034;-55
2023/10/04 14:15:25;;;;;;;2.40;1.13;;;;;;;;;;5114656;27;20035;-55
2023/10/04 14:17:54;;;;;;;1.65;1.25;;;;;;;;;;5114892;28;20042;-55
2023/10/04 14:20:20;;;;;;;3.22;1.50;;;;;;;;;;5112209;28;20100;-55
2023/10/04 14:22:46;;;;;;;4.97;1.58;;;;;;;;;;5114295;28;20469;-55
2023/10/04 14:25:12;;;;;;;2.45;1.30;;;;;;;;;;5112127;28;20032;-55
2023/10/04 14:27:38;;;;;;;1.73;1.25;;;;;;;;;;5096064;28;20088;-55
2023/10/04 14:30:05;;;;;;;2.17;1.25;;;;;;;;;;5114573;28;20040;-55
2023/10/04 14:32:30;;;;;;;2.45;1.02;;;;;;;;;;5114042;28;20460;-55
2023/10/04 14:34:56;;;;;;;1.27;1.17;;;;;;;;;;5112985;28;20046;-55
2023/10/04 14:37:21;;;;;;;1.33;1.23;;;;;;;;;;5113553;28;20068;-55
2023/10/04 14:39:46;;;;;;;1.25;1.15;;;;;;;;;;5116262;28;20398;-55
2023/10/04 14:42:13;;;;;;;1.95;1.17;;;;;;;;;;5129599;28;20139;-55
2023/10/04 14:44:42;;;;;;;1.20;1.10;;;;;;;;;;5134669;28;20120;-55
2023/10/04 14:47:08;;;;;;;1.60;1.10;;;;;;;;;;5138692;27;20040;-55
2023/10/04 14:49:33;;;;;;;3.15;1.70;;;;;;;;;;5139051;27;20122;-55